createdAt,value
2023-04-23T00:01:23.113Z,68.90
2023-04-23T00:03:49.908Z,68.90
2023-04-23T00:06:16.660Z,68.50
2023-04-23T00:08:43.140Z,67.90
2023-04-23T00:11:09.623Z,67.70
2023-04-23T00:13:36.124Z,67.70
2023-04-23T00:16:02.645Z,67.80
2023-04-23T00:18:29.183Z,67.70
2023-04-23T00:20:55.652Z,68.10
2023-04-23T00:23:22.146Z,68.10
2023-04-23T00:25:48.636Z,68.30
2023-04-23T00:28:15.112Z,68.10
2023-04-23T00:30:41.597Z,68.10
2023-04-23T00:33:08.078Z,67.90
2023-04-23T00:35:34.592Z,67.60
2023-04-23T00:38:01.052Z,67.10
2023-04-23T00:40:27.555Z,67.10
2023-04-23T00:42:54.039Z,67.00
2023-04-23T00:45:20.554Z,66.80
2023-04-23T00:47:47.103Z,66.90
2023-04-23T00:50:13.692Z,67.50
2023-04-23T00:52:40.189Z,67.20
2023-04-23T00:55:06.664Z,67.10
2023-04-23T00:57:33.143Z,66.80
2023-04-23T00:59:59.581Z,66.90
2023-04-23T01:02:26.242Z,66.80
2023-04-23T01:04:52.828Z,66.60
2023-04-23T01:07:19.385Z,66.80
2023-04-23T01:09:45.854Z,66.90
2023-04-23T01:12:12.315Z,67.10
2023-04-23T01:14:38.997Z,67.00
2023-04-23T01:17:05.699Z,66.80
2023-04-23T01:19:32.248Z,67.50
2023-04-23T01:21:58.730Z,66.90
2023-04-23T01:24:25.206Z,66.50
2023-04-23T01:26:51.683Z,66.80
2023-04-23T01:29:18.146Z,66.80
2023-04-23T01:31:45.013Z,66.50
2023-04-23T01:34:11.489Z,66.70
2023-04-23T01:36:37.974Z,66.90
2023-04-23T01:39:04.453Z,66.60
2023-04-23T01:41:30.952Z,66.50
2023-04-23T01:43:57.423Z,66.60
2023-04-23T01:46:23.947Z,66.40
2023-04-23T01:48:50.492Z,66.30
2023-04-23T01:51:16.990Z,67.20
2023-04-23T01:53:43.488Z,66.40
2023-04-23T01:56:10.001Z,66.80
2023-04-23T01:58:36.481Z,66.40
2023-04-23T02:01:02.965Z,66.20
2023-04-23T02:03:29.786Z,66.30
2023-04-23T02:05:56.462Z,66.30
2023-04-23T02:08:22.934Z,66.20
2023-04-23T02:10:49.405Z,66.90
2023-04-23T02:13:15.888Z,66.90
2023-04-23T02:15:42.412Z,66.50
2023-04-23T02:18:08.921Z,66.40
2023-04-23T02:20:35.402Z,66.80
2023-04-23T02:23:01.892Z,66.40
2023-04-23T02:25:28.355Z,66.70
2023-04-23T02:27:54.830Z,66.50
2023-04-23T02:30:21.292Z,66.60
2023-04-23T02:32:51.051Z,66.60
2023-04-23T02:35:17.558Z,66.60
2023-04-23T02:37:44.034Z,66.60
2023-04-23T02:40:10.519Z,66.50
2023-04-23T02:42:37.853Z,66.50
2023-04-23T02:45:04.328Z,66.50
2023-04-23T02:47:30.802Z,66.50
2023-04-23T02:49:57.308Z,66.50
2023-04-23T02:52:23.782Z,66.40
2023-04-23T02:54:50.250Z,66.30
2023-04-23T02:57:16.745Z,66.40
2023-04-23T02:59:43.237Z,66.30
2023-04-23T03:02:09.909Z,66.40
2023-04-23T03:04:36.465Z,66.40
2023-04-23T03:07:02.972Z,66.40
2023-04-23T03:09:29.453Z,66.30
2023-04-23T03:11:55.949Z,66.30
2023-04-23T03:14:22.419Z,66.30
2023-04-23T03:16:48.981Z,66.10
2023-04-23T03:19:15.473Z,66.20
2023-04-23T03:21:41.948Z,66.10
2023-04-23T03:24:08.420Z,66.00
2023-04-23T03:26:34.894Z,66.00
2023-04-23T03:29:03.115Z,65.80
2023-04-23T03:31:29.579Z,65.80
2023-04-23T03:33:56.040Z,65.80
2023-04-23T03:36:22.551Z,65.90
2023-04-23T03:38:49.052Z,65.60
2023-04-23T03:41:15.531Z,65.70
2023-04-23T03:43:42.014Z,65.60
2023-04-23T03:46:08.537Z,65.50
2023-04-23T03:48:35.053Z,65.50
2023-04-23T03:51:01.546Z,65.50
2023-04-23T03:53:28.043Z,65.40
2023-04-23T03:55:54.519Z,65.30
2023-04-23T03:58:21.028Z,65.40
2023-04-23T04:00:47.496Z,65.30
2023-04-23T04:03:14.131Z,65.20
2023-04-23T04:05:40.710Z,65.20
2023-04-23T04:08:07.253Z,65.30
2023-04-23T04:10:33.733Z,65.00
2023-04-23T04:13:00.223Z,65.10
2023-04-23T04:15:26.695Z,65.40
2023-04-23T04:17:53.270Z,66.20
2023-04-23T04:20:19.775Z,66.60
2023-04-23T04:22:46.276Z,66.80
2023-04-23T04:25:12.736Z,66.90
2023-04-23T04:27:39.229Z,66.70
2023-04-23T04:30:05.737Z,66.80
2023-04-23T04:32:32.276Z,66.50
2023-04-23T04:34:58.775Z,66.40
2023-04-23T04:37:25.277Z,66.40
2023-04-23T04:39:57.183Z,65.70
2023-04-23T04:42:23.763Z,66.00
2023-04-23T04:44:50.245Z,65.80
2023-04-23T04:47:16.726Z,66.00
2023-04-23T04:49:43.214Z,66.00
2023-04-23T04:52:09.704Z,66.00
2023-04-23T04:54:36.171Z,65.50
2023-04-23T04:57:02.733Z,65.30
2023-04-23T04:59:29.237Z,65.50
2023-04-23T05:01:55.755Z,65.80
2023-04-23T05:04:22.296Z,65.60
2023-04-23T05:06:48.807Z,66.30
2023-04-23T05:09:15.301Z,65.10
2023-04-23T05:11:41.787Z,65.00
2023-04-23T05:14:08.275Z,65.30
2023-04-23T05:16:34.778Z,65.00
2023-04-23T05:19:01.266Z,64.50
2023-04-23T05:21:27.748Z,65.00
2023-04-23T05:23:54.230Z,64.90
2023-04-23T05:26:20.694Z,64.60
2023-04-23T05:28:47.199Z,64.90
2023-04-23T05:31:13.695Z,64.80
2023-04-23T05:33:49.335Z,64.90
2023-04-23T05:36:17.112Z,64.90
2023-04-23T05:38:43.595Z,65.10
2023-04-23T05:41:10.070Z,65.00
2023-04-23T05:43:36.538Z,64.80
2023-04-23T05:46:03.030Z,64.60
2023-04-23T05:48:29.537Z,64.10
2023-04-23T05:50:56.042Z,64.50
2023-04-23T05:53:22.540Z,64.30
2023-04-23T05:55:49.013Z,64.40
2023-04-23T05:58:15.509Z,64.20
2023-04-23T06:00:41.997Z,64.00
2023-04-23T06:03:08.618Z,63.80
2023-04-23T06:05:35.258Z,63.70
2023-04-23T06:08:03.221Z,63.90
2023-04-23T06:10:29.699Z,64.00
2023-04-23T06:12:56.159Z,64.00
2023-04-23T06:15:22.635Z,64.00
2023-04-23T06:17:49.120Z,64.20
2023-04-23T06:20:15.662Z,64.40
2023-04-23T06:22:42.177Z,64.30
2023-04-23T06:25:08.661Z,63.90
2023-04-23T06:27:39.429Z,63.60
2023-04-23T06:30:05.924Z,63.50
2023-04-23T06:32:32.436Z,63.80
2023-04-23T06:35:03.417Z,63.60
2023-04-23T06:37:30.174Z,64.20
2023-04-23T06:39:56.696Z,64.10
2023-04-23T06:42:23.205Z,64.00
2023-04-23T06:44:49.676Z,64.10
2023-04-23T06:47:16.161Z,64.00
2023-04-23T06:49:42.684Z,64.10
2023-04-23T06:52:09.186Z,63.80
2023-04-23T06:54:35.680Z,63.80
2023-04-23T06:57:02.138Z,63.80
2023-04-23T06:59:28.647Z,63.80
2023-04-23T07:01:55.109Z,64.10
2023-04-23T07:04:27.367Z,64.20
2023-04-23T07:06:53.917Z,64.10
2023-04-23T07:09:20.429Z,63.90
2023-04-23T07:11:46.888Z,64.20
2023-04-23T07:14:13.392Z,64.20
2023-04-23T07:16:39.905Z,64.10
2023-04-23T07:19:06.487Z,64.50
2023-04-23T07:21:33.006Z,64.40
2023-04-23T07:23:59.521Z,64.50
2023-04-23T07:26:26.010Z,64.50
2023-04-23T07:28:53.041Z,63.90
2023-04-23T07:31:19.641Z,63.80
2023-04-23T07:33:46.118Z,64.10
2023-04-23T07:36:12.629Z,64.30
2023-04-23T07:38:39.090Z,64.10
2023-04-23T07:41:09.315Z,64.00
2023-04-23T07:43:35.842Z,64.10
2023-04-23T07:46:02.388Z,63.90
2023-04-23T07:48:28.902Z,64.00
2023-04-23T07:50:55.376Z,64.00
2023-04-23T07:53:21.839Z,64.30
2023-04-23T07:55:48.309Z,63.80
2023-04-23T07:58:14.808Z,63.80
2023-04-23T08:00:41.313Z,63.80
2023-04-23T08:03:08.034Z,64.00
2023-04-23T08:05:34.583Z,63.80
2023-04-23T08:08:01.201Z,63.80
2023-04-23T08:10:27.692Z,63.40
2023-04-23T08:12:54.156Z,64.00
2023-04-23T08:15:20.642Z,64.00
2023-04-23T08:17:47.148Z,63.90
2023-04-23T08:20:13.733Z,63.90
2023-04-23T08:22:40.310Z,63.70
2023-04-23T08:25:06.862Z,63.70
2023-04-23T08:27:33.397Z,63.70
2023-04-23T08:29:59.889Z,63.80
2023-04-23T08:32:26.404Z,63.70
2023-04-23T08:34:52.957Z,63.80
2023-04-23T08:37:29.784Z,63.80
2023-04-23T08:39:57.164Z,64.00
2023-04-23T08:42:23.630Z,64.00
2023-04-23T08:44:50.112Z,64.00
2023-04-23T08:47:16.593Z,64.00
2023-04-23T08:49:43.424Z,64.00
2023-04-23T08:52:10.178Z,64.00
2023-04-23T08:54:36.674Z,64.10
2023-04-23T08:57:03.144Z,64.20
2023-04-23T08:59:29.883Z,64.20
2023-04-23T09:01:56.388Z,64.10
2023-04-23T09:04:22.900Z,64.10
2023-04-23T09:06:49.382Z,64.10
2023-04-23T09:09:15.871Z,64.10
2023-04-23T09:11:42.367Z,64.10
2023-04-23T09:14:08.891Z,64.20
2023-04-23T09:16:35.402Z,64.20
2023-04-23T09:19:01.876Z,64.20
2023-04-23T09:21:28.361Z,64.30
2023-04-23T09:23:54.852Z,64.10
2023-04-23T09:26:21.344Z,64.30
2023-04-23T09:28:49.574Z,64.30
2023-04-23T09:31:16.551Z,64.30
2023-04-23T09:33:43.022Z,64.20
2023-04-23T09:36:09.490Z,64.20
2023-04-23T09:38:35.973Z,64.20
2023-04-23T09:41:02.476Z,64.20
2023-04-23T09:43:28.966Z,64.30
2023-04-23T09:45:55.454Z,64.30
2023-04-23T09:48:21.953Z,64.30
2023-04-23T09:50:48.462Z,64.30
2023-04-23T09:53:14.925Z,64.30
2023-04-23T09:55:41.414Z,64.30
2023-04-23T09:58:07.891Z,64.40
2023-04-23T10:00:34.398Z,64.40
2023-04-23T10:03:01.081Z,64.20
2023-04-23T10:05:34.204Z,64.20
2023-04-23T10:08:07.488Z,64.10
2023-04-23T10:10:36.364Z,64.00
2023-04-23T10:16:10.254Z,63.90
2023-04-23T10:18:45.024Z,63.90
2023-04-23T10:21:11.491Z,63.90
2023-04-23T10:23:37.965Z,64.00
2023-04-23T10:26:04.449Z,64.10
2023-04-23T10:28:30.932Z,63.90
2023-04-23T10:30:57.444Z,63.90
2023-04-23T10:33:31.896Z,63.90
2023-04-23T10:36:01.838Z,64.00
2023-04-23T10:38:28.390Z,63.90
2023-04-23T10:40:54.917Z,63.90
2023-04-23T10:43:21.407Z,63.90
2023-04-23T10:45:47.893Z,63.80
2023-04-23T10:48:14.387Z,63.80
2023-04-23T10:50:55.537Z,63.80
2023-04-23T10:53:27.312Z,63.70
2023-04-23T10:55:53.790Z,63.60
2023-04-23T10:58:20.281Z,63.50
2023-04-23T11:00:46.778Z,63.40
2023-04-23T11:03:13.363Z,63.40
2023-04-23T11:05:39.946Z,63.40
2023-04-23T11:10:35.782Z,63.30
2023-04-23T11:13:02.266Z,63.30
2023-04-23T11:15:28.746Z,63.30
2023-04-23T11:17:55.233Z,63.40
2023-04-23T11:20:21.764Z,63.30
2023-04-23T11:22:48.256Z,63.20
2023-04-23T11:25:14.739Z,63.10
2023-04-23T11:27:41.214Z,63.00
2023-04-23T11:30:07.693Z,63.00
2023-04-23T11:32:34.265Z,62.90
2023-04-23T11:35:00.850Z,62.80
2023-04-23T11:37:27.322Z,62.80
2023-04-23T11:39:53.806Z,62.90
2023-04-23T11:42:20.394Z,62.90
2023-04-23T11:44:46.920Z,63.00
2023-04-23T11:47:13.433Z,62.90
2023-04-23T11:49:40.162Z,62.80
2023-04-23T11:52:06.919Z,62.90
2023-04-23T11:54:33.386Z,62.80
2023-04-23T11:56:59.948Z,62.70
2023-04-23T11:59:26.475Z,62.50
2023-04-23T12:01:52.947Z,62.40
2023-04-23T12:04:19.719Z,62.20
2023-04-23T12:06:46.412Z,62.20
2023-04-23T12:09:12.891Z,61.90
2023-04-23T12:11:39.359Z,61.80
2023-04-23T12:14:05.853Z,61.70
2023-04-23T12:16:32.361Z,61.50
2023-04-23T12:18:58.861Z,61.60
2023-04-23T12:21:26.334Z,61.60
2023-04-23T12:23:52.932Z,61.60
2023-04-23T12:26:19.434Z,61.60
2023-04-23T12:28:45.953Z,61.70
2023-04-23T12:31:12.481Z,61.80
2023-04-23T12:33:39.005Z,61.70
2023-04-23T12:36:05.501Z,61.80
2023-04-23T12:38:32.004Z,61.80
2023-04-23T12:40:58.472Z,61.70
2023-04-23T12:43:24.963Z,61.80
2023-04-23T12:45:51.458Z,61.70
2023-04-23T12:48:17.957Z,61.60
2023-04-23T12:50:44.432Z,61.70
2023-04-23T12:53:10.925Z,61.70
2023-04-23T12:55:37.410Z,61.60
2023-04-23T12:58:03.869Z,61.60
2023-04-23T13:00:30.409Z,61.50
2023-04-23T13:02:57.200Z,61.50
2023-04-23T13:05:23.857Z,61.40
2023-04-23T13:07:50.327Z,61.30
2023-04-23T13:10:16.821Z,61.10
2023-04-23T13:12:43.313Z,61.10
2023-04-23T13:15:09.804Z,60.80
2023-04-23T13:17:36.321Z,60.60
2023-04-23T13:20:02.856Z,60.40
2023-04-23T13:22:33.783Z,60.30
2023-04-23T13:25:00.275Z,60.40
2023-04-23T13:27:26.772Z,60.70
2023-04-23T13:29:53.255Z,60.50
2023-04-23T13:32:22.069Z,60.50
2023-04-23T13:34:49.151Z,60.50
2023-04-23T13:37:15.630Z,60.60
2023-04-23T13:39:42.136Z,60.50
2023-04-23T13:42:09.977Z,60.70
2023-04-23T13:44:36.858Z,60.60
2023-04-23T13:47:03.338Z,60.60
2023-04-23T13:49:33.634Z,60.40
2023-04-23T13:52:00.117Z,60.40
2023-04-23T13:54:27.645Z,60.30
2023-04-23T13:56:54.105Z,60.30
2023-04-23T13:59:20.641Z,60.50
2023-04-23T14:01:47.362Z,60.40
2023-04-23T14:04:13.953Z,60.30
2023-04-23T14:06:40.485Z,60.30
2023-04-23T14:09:07.008Z,60.40
2023-04-23T14:11:33.479Z,60.50
2023-04-23T14:13:59.948Z,60.50
2023-04-23T14:16:26.463Z,60.50
2023-04-23T14:18:53.004Z,60.50
2023-04-23T14:21:21.645Z,60.50
2023-04-23T14:23:48.124Z,60.60
2023-04-23T14:26:14.595Z,60.60
2023-04-23T14:28:41.095Z,60.70
2023-04-23T14:31:07.641Z,60.50
2023-04-23T14:33:34.125Z,60.70
2023-04-23T14:36:00.604Z,60.60
2023-04-23T14:38:27.078Z,60.30
2023-04-23T14:40:53.584Z,60.00
2023-04-23T14:43:20.059Z,59.90
2023-04-23T14:45:46.560Z,59.70
2023-04-23T14:48:13.040Z,59.50
2023-04-23T14:50:39.536Z,59.50
2023-04-23T14:53:06.029Z,59.50
2023-04-23T14:55:33.673Z,59.50
2023-04-23T14:58:00.149Z,59.30
2023-04-23T15:00:26.626Z,59.00
2023-04-23T15:02:53.253Z,59.00
2023-04-23T15:05:19.801Z,59.00
2023-04-23T15:07:46.369Z,59.20
2023-04-23T15:10:12.854Z,59.20
2023-04-23T15:12:39.356Z,59.30
2023-04-23T15:15:09.677Z,59.30
2023-04-23T15:17:36.198Z,59.50
2023-04-23T15:20:02.711Z,59.50
2023-04-23T15:22:29.212Z,59.50
2023-04-23T15:24:55.707Z,59.60
2023-04-23T15:27:22.172Z,59.50
2023-04-23T15:29:48.673Z,59.50
2023-04-23T15:32:15.153Z,59.40
2023-04-23T15:34:41.628Z,59.20
2023-04-23T15:37:08.124Z,59.10
2023-04-23T15:39:34.626Z,59.20
2023-04-23T15:42:01.097Z,59.20
2023-04-23T15:44:27.576Z,59.30
2023-04-23T15:46:54.067Z,59.60
2023-04-23T15:49:20.539Z,59.40
2023-04-23T15:51:47.041Z,59.50
2023-04-23T15:54:13.539Z,59.70
2023-04-23T15:56:45.733Z,60.00
2023-04-23T15:59:12.213Z,60.00
2023-04-23T16:04:29.876Z,59.90
2023-04-23T16:06:56.488Z,59.90
2023-04-23T16:09:22.957Z,59.80
2023-04-23T16:11:49.443Z,59.90
2023-04-23T16:14:15.942Z,60.00
2023-04-23T16:16:42.440Z,60.00
2023-04-23T16:19:08.933Z,60.10
2023-04-23T16:21:39.765Z,60.10
2023-04-23T16:24:06.245Z,60.10
2023-04-23T16:26:32.743Z,60.10
2023-04-23T16:29:11.270Z,60.00
2023-04-23T16:31:45.678Z,60.00
2023-04-23T16:34:12.155Z,60.10
2023-04-23T16:36:38.665Z,60.00
2023-04-23T16:39:05.128Z,59.90
2023-04-23T16:41:31.609Z,59.80
2023-04-23T16:43:58.089Z,59.80
2023-04-23T16:46:24.596Z,59.60
2023-04-23T16:48:51.098Z,59.80
2023-04-23T16:51:17.586Z,59.80
2023-04-23T16:53:44.084Z,59.70
2023-04-23T16:56:10.573Z,59.70
2023-04-23T16:58:37.112Z,59.80
2023-04-23T17:01:03.611Z,59.70
2023-04-23T17:03:30.258Z,59.70
2023-04-23T17:05:57.744Z,59.60
2023-04-23T17:08:24.223Z,59.80
2023-04-23T17:10:51.748Z,59.70
2023-04-23T17:13:18.234Z,59.70
2023-04-23T17:15:44.735Z,59.80
2023-04-23T17:18:12.454Z,59.80
2023-04-23T17:20:39.118Z,59.80
2023-04-23T17:23:05.584Z,59.70
2023-04-23T17:25:32.066Z,59.80
2023-04-23T17:27:58.556Z,59.70
2023-04-23T17:30:25.020Z,59.70
2023-04-23T17:32:51.554Z,59.80
2023-04-23T17:35:18.125Z,59.90
2023-04-23T17:37:44.621Z,59.90
2023-04-23T17:40:11.105Z,59.90
2023-04-23T17:42:37.609Z,59.90
2023-04-23T17:45:04.098Z,60.00
2023-04-23T17:47:30.605Z,60.00
2023-04-23T17:49:57.098Z,60.00
2023-04-23T17:52:23.591Z,60.80
2023-04-23T17:54:50.066Z,60.00
2023-04-23T17:57:16.549Z,60.10
2023-04-23T17:59:43.161Z,60.00
2023-04-23T18:02:09.880Z,60.20
2023-04-23T18:04:36.480Z,60.10
2023-04-23T18:07:02.988Z,60.20
2023-04-23T18:09:29.465Z,60.20
2023-04-23T18:11:55.934Z,60.90
2023-04-23T18:14:22.419Z,60.20
2023-04-23T18:16:51.990Z,60.20
2023-04-23T18:19:18.535Z,60.20
2023-04-23T18:21:45.014Z,60.30
2023-04-23T18:24:15.864Z,60.30
2023-04-23T18:26:42.330Z,60.30
2023-04-23T18:29:09.851Z,60.30
2023-04-23T18:31:36.310Z,60.40
2023-04-23T18:34:02.786Z,60.40
2023-04-23T18:36:29.253Z,60.40
2023-04-23T18:38:55.727Z,60.50
2023-04-23T18:41:22.187Z,60.40
2023-04-23T18:43:48.671Z,60.40
2023-04-23T18:46:15.178Z,60.50
2023-04-23T18:48:41.695Z,60.50
2023-04-23T18:51:08.179Z,60.50
2023-04-23T18:53:34.644Z,60.50
2023-04-23T18:56:01.155Z,60.50
2023-04-23T18:58:30.201Z,60.50
2023-04-23T19:00:56.811Z,60.60
2023-04-23T19:03:26.698Z,60.60
2023-04-23T19:05:53.995Z,60.50
2023-04-23T19:08:20.519Z,60.70
2023-04-23T19:10:46.990Z,60.70
2023-04-23T19:13:13.495Z,60.70
2023-04-23T19:15:40.015Z,60.70
2023-04-23T19:18:06.515Z,60.80
2023-04-23T19:20:33.010Z,60.80
2023-04-23T19:22:59.490Z,60.70
2023-04-23T19:25:25.979Z,60.90
2023-04-23T19:27:52.449Z,60.90
2023-04-23T19:30:21.906Z,61.00
2023-04-23T19:32:48.439Z,61.00
2023-04-23T19:35:14.956Z,61.00
2023-04-23T19:37:41.436Z,61.00
2023-04-23T19:40:07.938Z,61.00
2023-04-23T19:42:34.405Z,61.10
2023-04-23T19:45:00.873Z,61.20
2023-04-23T19:47:27.418Z,61.20
2023-04-23T19:49:53.956Z,61.20
2023-04-23T19:52:20.442Z,61.20
2023-04-23T19:54:46.957Z,61.90
2023-04-23T19:57:13.445Z,61.20
2023-04-23T19:59:40.102Z,61.30
2023-04-23T20:02:06.774Z,61.30
2023-04-23T20:04:33.335Z,61.30
2023-04-23T20:06:59.822Z,61.50
2023-04-23T20:09:26.342Z,61.30
2023-04-23T20:11:52.814Z,61.40
2023-04-23T20:14:19.313Z,61.40
2023-04-23T20:16:45.797Z,61.40
2023-04-23T20:19:12.297Z,61.40
2023-04-23T20:21:38.799Z,61.50
2023-04-23T20:24:05.276Z,61.40
2023-04-23T20:26:31.750Z,62.10
2023-04-23T20:28:58.241Z,61.40
2023-04-23T20:31:24.731Z,61.50
2023-04-23T20:33:51.249Z,61.50
2023-04-23T20:36:17.746Z,61.60
2023-04-23T20:38:44.223Z,61.50
2023-04-23T20:41:10.839Z,61.90
2023-04-23T20:43:37.348Z,61.80
2023-04-23T20:46:03.878Z,61.70
2023-04-23T20:48:30.384Z,61.80
2023-04-23T20:50:56.872Z,62.20
2023-04-23T20:53:23.379Z,62.10
2023-04-23T20:55:49.866Z,62.00
2023-04-23T20:58:16.338Z,62.90
2023-04-23T21:00:42.836Z,63.60
2023-04-23T21:03:09.440Z,63.40
2023-04-23T21:05:35.991Z,63.20
2023-04-23T21:08:03.965Z,62.90
2023-04-23T21:10:30.441Z,62.90
2023-04-23T21:12:56.921Z,63.10
2023-04-23T21:15:23.393Z,63.50
2023-04-23T21:17:49.935Z,63.70
2023-04-23T21:20:16.430Z,63.60
2023-04-23T21:22:42.917Z,63.70
2023-04-23T21:25:09.399Z,63.80
2023-04-23T21:27:35.879Z,63.90
2023-04-23T21:30:02.365Z,63.90
2023-04-23T21:32:28.892Z,64.00
2023-04-23T21:34:55.377Z,64.00
2023-04-23T21:37:21.846Z,64.00
2023-04-23T21:39:48.357Z,63.90
2023-04-23T21:42:14.874Z,63.80
2023-04-23T21:44:41.379Z,64.00
2023-04-23T21:47:08.047Z,64.00
2023-04-23T21:49:34.634Z,63.90
2023-04-23T21:52:01.137Z,63.90
2023-04-23T21:54:27.650Z,64.10
2023-04-23T21:56:54.162Z,63.90
2023-04-23T21:59:20.638Z,64.10
2023-04-23T22:01:47.150Z,64.30
2023-04-23T22:04:13.844Z,64.10
2023-04-23T22:06:40.396Z,64.10
2023-04-23T22:09:06.874Z,63.80
2023-04-23T22:11:33.363Z,63.60
2023-04-23T22:13:59.851Z,63.60
2023-04-23T22:16:28.843Z,63.20
2023-04-23T22:18:55.813Z,63.00
2023-04-23T22:21:22.313Z,63.50
2023-04-23T22:23:48.792Z,62.90
2023-04-23T22:26:15.288Z,63.00
2023-04-23T22:28:41.767Z,62.90
2023-04-23T22:31:08.272Z,62.90
2023-04-23T22:33:34.754Z,63.10
2023-04-23T22:36:01.274Z,63.10
2023-04-23T22:38:27.749Z,63.00
2023-04-23T22:40:54.244Z,62.90
2023-04-23T22:43:20.707Z,63.00
2023-04-23T22:45:47.218Z,62.70
2023-04-23T22:48:13.690Z,62.80
2023-04-23T22:50:40.196Z,62.80
2023-04-23T22:53:06.709Z,62.70
2023-04-23T22:55:33.183Z,62.80
2023-04-23T22:57:59.694Z,62.60
2023-04-23T23:00:26.205Z,62.90
2023-04-23T23:02:52.821Z,62.70
2023-04-23T23:05:19.396Z,62.60
2023-04-23T23:07:45.879Z,62.50
2023-04-23T23:10:12.358Z,62.50
2023-04-23T23:12:38.825Z,62.20
2023-04-23T23:15:05.292Z,62.30
2023-04-23T23:17:31.793Z,62.70
2023-04-23T23:19:58.301Z,62.50
2023-04-23T23:22:24.775Z,62.20
2023-04-23T23:24:51.255Z,62.40
2023-04-23T23:27:17.729Z,62.40
2023-04-23T23:29:44.434Z,62.30
2023-04-23T23:32:10.999Z,62.30
2023-04-23T23:34:37.467Z,62.50
2023-04-23T23:37:03.965Z,62.50
2023-04-23T23:39:30.434Z,62.10
2023-04-23T23:41:59.052Z,62.10
2023-04-23T23:44:26.217Z,62.10
2023-04-23T23:46:52.914Z,62.30
2023-04-23T23:49:19.466Z,62.10
2023-04-23T23:51:45.948Z,62.30
2023-04-23T23:54:12.420Z,62.00
2023-04-23T23:56:38.881Z,62.10
2023-04-23T23:59:05.349Z,62.10
